sensor_id;sensor_type;location;lat;lon;timestamp;P1;durP1;ratioP1;P2;durP2;ratioP2
62673;SDS011;62269;47.594;17.638;2024-02-14T00:00:02;7.93;;;6.70;;
62673;SDS011;62269;47.594;17.638;2024-02-14T00:01:01;9.63;;;6.93;;
62673;SDS011;62269;47.594;17.638;2024-02-14T00:01:58;7.72;;;6.60;;
62673;SDS011;62269;47.594;17.638;2024-02-14T00:02:56;7.53;;;6.55;;
62673;SDS011;62269;47.594;17.638;2024-02-14T00:03:53;8.88;;;6.65;;
62673;SDS011;62269;47.594;17.638;2024-02-14T00:04:50;7.35;;;6.57;;
62673;SDS011;62269;47.594;17.638;2024-02-14T00:05:48;9.10;;;6.72;;
62673;SDS011;62269;47.594;17.638;2024-02-14T00:06:46;8.25;;;6.78;;
62673;SDS011;62269;47.594;17.638;2024-02-14T00:07:44;10.57;;;7.15;;
62673;SDS011;62269;47.594;17.638;2024-02-14T00:08:42;7.95;;;6.78;;
62673;SDS011;62269;47.594;17.638;2024-02-14T00:09:40;9.65;;;6.65;;
62673;SDS011;62269;47.594;17.638;2024-02-14T00:10:38;7.80;;;6.82;;
62673;SDS011;62269;47.594;17.638;2024-02-14T00:11:35;7.90;;;6.57;;
62673;SDS011;62269;47.594;17.638;2024-02-14T00:12:33;7.53;;;6.43;;
62673;SDS011;62269;47.594;17.638;2024-02-14T00:13:32;8.95;;;7.05;;
62673;SDS011;62269;47.594;17.638;2024-02-14T00:14:31;7.50;;;6.28;;
62673;SDS011;62269;47.594;17.638;2024-02-14T00:15:28;9.07;;;7.22;;
62673;SDS011;62269;47.594;17.638;2024-02-14T00:16:27;9.60;;;6.82;;
62673;SDS011;62269;47.594;17.638;2024-02-14T00:17:26;6.28;;;5.65;;
62673;SDS011;62269;47.594;17.638;2024-02-14T00:18:24;8.05;;;6.72;;
62673;SDS011;62269;47.594;17.638;2024-02-14T00:19:21;7.97;;;6.53;;
62673;SDS011;62269;47.594;17.638;2024-02-14T00:20:19;9.80;;;6.75;;
62673;SDS011;62269;47.594;17.638;2024-02-14T00:21:17;8.50;;;6.95;;
62673;SDS011;62269;47.594;17.638;2024-02-14T00:22:14;8.75;;;6.95;;
62673;SDS011;62269;47.594;17.638;2024-02-14T00:23:12;8.02;;;6.97;;
62673;SDS011;62269;47.594;17.638;2024-02-14T00:24:10;9.13;;;6.85;;
62673;SDS011;62269;47.594;17.638;2024-02-14T00:25:08;7.75;;;6.70;;
62673;SDS011;62269;47.594;17.638;2024-02-14T00:26:06;7.75;;;6.55;;
62673;SDS011;62269;47.594;17.638;2024-02-14T00:27:04;9.70;;;6.87;;
62673;SDS011;62269;47.594;17.638;2024-02-14T00:28:01;7.75;;;6.87;;
62673;SDS011;62269;47.594;17.638;2024-02-14T00:29:00;7.68;;;6.87;;
62673;SDS011;62269;47.594;17.638;2024-02-14T00:29:57;8.02;;;6.55;;
62673;SDS011;62269;47.594;17.638;2024-02-14T00:30:56;8.65;;;6.97;;
62673;SDS011;62269;47.594;17.638;2024-02-14T00:31:53;8.80;;;7.40;;
62673;SDS011;62269;47.594;17.638;2024-02-14T00:32:50;10.18;;;7.28;;
62673;SDS011;62269;47.594;17.638;2024-02-14T00:33:48;11.30;;;7.12;;
62673;SDS011;62269;47.594;17.638;2024-02-14T00:34:48;9.15;;;7.28;;
62673;SDS011;62269;47.594;17.638;2024-02-14T00:35:47;7.72;;;6.80;;
62673;SDS011;62269;47.594;17.638;2024-02-14T00:36:45;7.97;;;7.18;;
62673;SDS011;62269;47.594;17.638;2024-02-14T00:37:43;8.63;;;7.07;;
62673;SDS011;62269;47.594;17.638;2024-02-14T00:38:41;8.50;;;7.25;;
62673;SDS011;62269;47.594;17.638;2024-02-14T00:39:38;8.65;;;7.07;;
62673;SDS011;62269;47.594;17.638;2024-02-14T00:40:35;8.88;;;7.20;;
62673;SDS011;62269;47.594;17.638;2024-02-14T00:41:33;8.02;;;7.22;;
62673;SDS011;62269;47.594;17.638;2024-02-14T00:42:31;10.38;;;7.05;;
62673;SDS011;62269;47.594;17.638;2024-02-14T00:43:29;12.60;;;7.00;;
62673;SDS011;62269;47.594;17.638;2024-02-14T00:44:27;9.20;;;7.80;;
62673;SDS011;62269;47.594;17.638;2024-02-14T00:45:24;8.32;;;7.12;;
62673;SDS011;62269;47.594;17.638;2024-02-14T00:46:22;7.50;;;6.68;;
62673;SDS011;62269;47.594;17.638;2024-02-14T00:47:20;8.32;;;6.78;;
62673;SDS011;62269;47.594;17.638;2024-02-14T00:48:18;7.80;;;6.93;;
62673;SDS011;62269;47.594;17.638;2024-02-14T00:49:19;8.20;;;7.35;;
62673;SDS011;62269;47.594;17.638;2024-02-14T00:50:16;9.52;;;7.35;;
62673;SDS011;62269;47.594;17.638;2024-02-14T00:51:14;9.27;;;7.53;;
62673;SDS011;62269;47.594;17.638;2024-02-14T00:52:12;9.82;;;7.30;;
62673;SDS011;62269;47.594;17.638;2024-02-14T00:53:10;8.10;;;6.80;;
62673;SDS011;62269;47.594;17.638;2024-02-14T00:54:07;8.27;;;6.93;;
62673;SDS011;62269;47.594;17.638;2024-02-14T00:55:05;8.15;;;6.87;;
62673;SDS011;62269;47.594;17.638;2024-02-14T00:56:02;8.98;;;7.70;;
62673;SDS011;62269;47.594;17.638;2024-02-14T00:57:00;8.63;;;7.30;;
62673;SDS011;62269;47.594;17.638;2024-02-14T00:57:57;10.55;;;7.15;;
62673;SDS011;62269;47.594;17.638;2024-02-14T00:58:55;8.27;;;6.82;;
62673;SDS011;62269;47.594;17.638;2024-02-14T00:59:53;7.95;;;6.85;;
62673;SDS011;62269;47.594;17.638;2024-02-14T01:00:53;9.07;;;7.55;;
62673;SDS011;62269;47.594;17.638;2024-02-14T01:01:50;9.40;;;7.80;;
62673;SDS011;62269;47.594;17.638;2024-02-14T01:02:47;10.07;;;7.65;;
62673;SDS011;62269;47.594;17.638;2024-02-14T01:03:44;10.27;;;7.40;;
62673;SDS011;62269;47.594;17.638;2024-02-14T01:04:42;9.75;;;7.57;;
62673;SDS011;62269;47.594;17.638;2024-02-14T01:05:39;8.13;;;7.15;;
62673;SDS011;62269;47.594;17.638;2024-02-14T01:06:36;8.32;;;7.25;;
62673;SDS011;62269;47.594;17.638;2024-02-14T01:07:33;8.57;;;7.05;;
62673;SDS011;62269;47.594;17.638;2024-02-14T01:08:30;9.50;;;7.20;;
62673;SDS011;62269;47.594;17.638;2024-02-14T01:09:28;10.77;;;7.68;;
62673;SDS011;62269;47.594;17.638;2024-02-14T01:10:25;8.48;;;7.05;;
62673;SDS011;62269;47.594;17.638;2024-02-14T01:11:22;7.43;;;6.62;;
62673;SDS011;62269;47.594;17.638;2024-02-14T01:12:19;9.30;;;7.18;;
62673;SDS011;62269;47.594;17.638;2024-02-14T01:13:17;9.65;;;6.85;;
62673;SDS011;62269;47.594;17.638;2024-02-14T01:14:15;9.90;;;7.60;;
62673;SDS011;62269;47.594;17.638;2024-02-14T01:15:12;8.65;;;7.32;;
62673;SDS011;62269;47.594;17.638;2024-02-14T01:16:10;8.50;;;7.60;;
62673;SDS011;62269;47.594;17.638;2024-02-14T01:17:07;8.68;;;7.78;;
62673;SDS011;62269;47.594;17.638;2024-02-14T01:18:04;9.25;;;7.37;;
62673;SDS011;62269;47.594;17.638;2024-02-14T01:19:02;10.43;;;7.35;;
62673;SDS011;62269;47.594;17.638;2024-02-14T01:20:00;9.07;;;6.93;;
62673;SDS011;62269;47.594;17.638;2024-02-14T01:20:57;9.07;;;7.20;;
62673;SDS011;62269;47.594;17.638;2024-02-14T01:21:58;9.70;;;7.20;;
62673;SDS011;62269;47.594;17.638;2024-02-14T01:24:17;9.55;;;7.28;;
62673;SDS011;62269;47.594;17.638;2024-02-14T01:29:00;8.55;;;7.00;;
62673;SDS011;62269;47.594;17.638;2024-02-14T01:31:42;8.68;;;7.78;;
62673;SDS011;62269;47.594;17.638;2024-02-14T01:34:26;9.60;;;7.15;;
62673;SDS011;62269;47.594;17.638;2024-02-14T01:35:25;7.93;;;7.10;;
62673;SDS011;62269;47.594;17.638;2024-02-14T01:36:24;8.55;;;7.00;;
62673;SDS011;62269;47.594;17.638;2024-02-14T01:37:21;8.55;;;7.18;;
62673;SDS011;62269;47.594;17.638;2024-02-14T01:38:18;10.10;;;7.28;;
62673;SDS011;62269;47.594;17.638;2024-02-14T01:39:16;8.68;;;7.20;;
62673;SDS011;62269;47.594;17.638;2024-02-14T01:40:14;9.13;;;7.22;;
62673;SDS011;62269;47.594;17.638;2024-02-14T01:41:12;8.88;;;7.62;;
62673;SDS011;62269;47.594;17.638;2024-02-14T01:42:10;7.97;;;7.07;;
62673;SDS011;62269;47.594;17.638;2024-02-14T01:43:07;10.07;;;7.68;;
62673;SDS011;62269;47.594;17.638;2024-02-14T01:44:06;8.48;;;7.07;;
62673;SDS011;62269;47.594;17.638;2024-02-14T01:45:03;9.68;;;8.05;;
62673;SDS011;62269;47.594;17.638;2024-02-14T01:46:04;10.43;;;7.70;;
62673;SDS011;62269;47.594;17.638;2024-02-14T01:48:00;9.23;;;7.05;;
62673;SDS011;62269;47.594;17.638;2024-02-14T01:48:59;8.40;;;6.82;;
62673;SDS011;62269;47.594;17.638;2024-02-14T01:49:58;8.85;;;7.55;;
62673;SDS011;62269;47.594;17.638;2024-02-14T01:50:55;7.55;;;6.60;;
62673;SDS011;62269;47.594;17.638;2024-02-14T01:51:53;8.50;;;7.60;;
62673;SDS011;62269;47.594;17.638;2024-02-14T01:52:52;8.23;;;7.12;;
62673;SDS011;62269;47.594;17.638;2024-02-14T01:53:50;9.02;;;7.90;;
62673;SDS011;62269;47.594;17.638;2024-02-14T01:54:48;10.85;;;8.23;;
62673;SDS011;62269;47.594;17.638;2024-02-14T01:55:46;10.05;;;7.68;;
62673;SDS011;62269;47.594;17.638;2024-02-14T01:56:43;12.65;;;8.70;;
62673;SDS011;62269;47.594;17.638;2024-02-14T01:57:41;11.25;;;8.27;;
62673;SDS011;62269;47.594;17.638;2024-02-14T01:58:39;9.63;;;7.35;;
62673;SDS011;62269;47.594;17.638;2024-02-14T01:59:36;8.77;;;7.50;;
62673;SDS011;62269;47.594;17.638;2024-02-14T02:00:35;9.48;;;8.48;;
62673;SDS011;62269;47.594;17.638;2024-02-14T02:01:32;10.95;;;8.70;;
62673;SDS011;62269;47.594;17.638;2024-02-14T02:02:30;9.35;;;8.32;;
62673;SDS011;62269;47.594;17.638;2024-02-14T02:03:27;10.90;;;7.72;;
62673;SDS011;62269;47.594;17.638;2024-02-14T02:04:25;8.88;;;7.40;;
62673;SDS011;62269;47.594;17.638;2024-02-14T02:05:22;9.48;;;8.13;;
62673;SDS011;62269;47.594;17.638;2024-02-14T02:06:20;9.95;;;7.55;;
62673;SDS011;62269;47.594;17.638;2024-02-14T02:07:18;10.13;;;8.30;;
62673;SDS011;62269;47.594;17.638;2024-02-14T02:08:16;9.13;;;8.10;;
62673;SDS011;62269;47.594;17.638;2024-02-14T02:09:14;9.32;;;8.07;;
62673;SDS011;62269;47.594;17.638;2024-02-14T02:10:12;9.10;;;7.95;;
62673;SDS011;62269;47.594;17.638;2024-02-14T02:11:09;8.80;;;7.90;;
62673;SDS011;62269;47.594;17.638;2024-02-14T02:12:07;11.02;;;9.15;;
62673;SDS011;62269;47.594;17.638;2024-02-14T02:13:05;9.15;;;7.87;;
62673;SDS011;62269;47.594;17.638;2024-02-14T02:14:02;10.88;;;7.60;;
62673;SDS011;62269;47.594;17.638;2024-02-14T02:17:00;8.73;;;7.47;;
62673;SDS011;62269;47.594;17.638;2024-02-14T02:18:04;9.38;;;7.37;;
62673;SDS011;62269;47.594;17.638;2024-02-14T02:19:03;11.15;;;8.02;;
62673;SDS011;62269;47.594;17.638;2024-02-14T02:20:05;9.95;;;7.57;;
62673;SDS011;62269;47.594;17.638;2024-02-14T02:21:05;9.27;;;7.78;;
62673;SDS011;62269;47.594;17.638;2024-02-14T02:22:03;8.80;;;7.87;;
62673;SDS011;62269;47.594;17.638;2024-02-14T02:23:01;10.82;;;8.13;;
62673;SDS011;62269;47.594;17.638;2024-02-14T02:24:00;9.88;;;8.13;;
62673;SDS011;62269;47.594;17.638;2024-02-14T02:24:57;10.18;;;8.60;;
62673;SDS011;62269;47.594;17.638;2024-02-14T02:25:55;9.82;;;8.52;;
62673;SDS011;62269;47.594;17.638;2024-02-14T02:26:52;9.07;;;8.18;;
62673;SDS011;62269;47.594;17.638;2024-02-14T02:27:50;10.73;;;8.57;;
62673;SDS011;62269;47.594;17.638;2024-02-14T02:28:48;9.80;;;8.82;;
62673;SDS011;62269;47.594;17.638;2024-02-14T02:29:45;12.20;;;8.48;;
62673;SDS011;62269;47.594;17.638;2024-02-14T02:30:44;10.07;;;8.25;;
62673;SDS011;62269;47.594;17.638;2024-02-14T02:31:43;9.68;;;8.65;;
62673;SDS011;62269;47.594;17.638;2024-02-14T02:32:41;9.70;;;8.70;;
62673;SDS011;62269;47.594;17.638;2024-02-14T02:33:39;9.77;;;8.50;;
62673;SDS011;62269;47.594;17.638;2024-02-14T02:34:37;9.88;;;7.97;;
62673;SDS011;62269;47.594;17.638;2024-02-14T02:35:36;10.05;;;7.95;;
62673;SDS011;62269;47.594;17.638;2024-02-14T02:36:33;11.10;;;8.60;;
62673;SDS011;62269;47.594;17.638;2024-02-14T02:37:32;9.93;;;8.65;;
62673;SDS011;62269;47.594;17.638;2024-02-14T02:38:30;9.77;;;8.18;;
62673;SDS011;62269;47.594;17.638;2024-02-14T02:39:28;11.10;;;8.55;;
62673;SDS011;62269;47.594;17.638;2024-02-14T02:40:25;9.73;;;8.65;;
62673;SDS011;62269;47.594;17.638;2024-02-14T02:41:26;10.73;;;8.55;;
62673;SDS011;62269;47.594;17.638;2024-02-14T02:42:23;9.55;;;8.55;;
62673;SDS011;62269;47.594;17.638;2024-02-14T02:43:21;11.38;;;8.38;;
62673;SDS011;62269;47.594;17.638;2024-02-14T02:44:18;10.38;;;8.38;;
62673;SDS011;62269;47.594;17.638;2024-02-14T02:45:15;12.32;;;8.88;;
62673;SDS011;62269;47.594;17.638;2024-02-14T02:46:13;9.27;;;8.35;;
62673;SDS011;62269;47.594;17.638;2024-02-14T02:47:10;11.40;;;9.07;;
62673;SDS011;62269;47.594;17.638;2024-02-14T02:48:09;11.27;;;8.82;;
62673;SDS011;62269;47.594;17.638;2024-02-14T02:49:07;9.82;;;8.77;;
62673;SDS011;62269;47.594;17.638;2024-02-14T02:50:05;10.25;;;8.10;;
62673;SDS011;62269;47.594;17.638;2024-02-14T02:51:03;8.88;;;7.95;;
62673;SDS011;62269;47.594;17.638;2024-02-14T02:52:01;10.52;;;8.68;;
62673;SDS011;62269;47.594;17.638;2024-02-14T02:52:59;9.63;;;8.48;;
62673;SDS011;62269;47.594;17.638;2024-02-14T02:53:57;10.25;;;8.73;;
62673;SDS011;62269;47.594;17.638;2024-02-14T02:54:54;11.77;;;8.88;;
62673;SDS011;62269;47.594;17.638;2024-02-14T02:55:52;12.18;;;9.05;;
62673;SDS011;62269;47.594;17.638;2024-02-14T02:56:51;11.68;;;9.82;;
62673;SDS011;62269;47.594;17.638;2024-02-14T02:57:48;10.07;;;8.95;;
62673;SDS011;62269;47.594;17.638;2024-02-14T02:58:46;13.35;;;9.65;;
62673;SDS011;62269;47.594;17.638;2024-02-14T02:59:45;10.43;;;8.50;;
62673;SDS011;62269;47.594;17.638;2024-02-14T03:00:44;10.48;;;9.25;;
62673;SDS011;62269;47.594;17.638;2024-02-14T03:01:42;12.73;;;9.30;;
62673;SDS011;62269;47.594;17.638;2024-02-14T03:02:41;10.32;;;8.77;;
62673;SDS011;62269;47.594;17.638;2024-02-14T03:04:39;10.05;;;8.20;;
62673;SDS011;62269;47.594;17.638;2024-02-14T03:05:47;10.02;;;8.35;;
62673;SDS011;62269;47.594;17.638;2024-02-14T03:06:45;14.00;;;9.90;;
62673;SDS011;62269;47.594;17.638;2024-02-14T03:07:44;11.60;;;9.10;;
62673;SDS011;62269;47.594;17.638;2024-02-14T03:08:41;11.50;;;9.65;;
62673;SDS011;62269;47.594;17.638;2024-02-14T03:09:40;14.40;;;9.18;;
62673;SDS011;62269;47.594;17.638;2024-02-14T03:10:38;10.30;;;9.25;;
62673;SDS011;62269;47.594;17.638;2024-02-14T03:11:35;15.07;;;10.07;;
62673;SDS011;62269;47.594;17.638;2024-02-14T03:12:34;10.88;;;9.23;;
62673;SDS011;62269;47.594;17.638;2024-02-14T03:13:32;11.65;;;9.52;;
62673;SDS011;62269;47.594;17.638;2024-02-14T03:14:30;12.50;;;9.50;;
62673;SDS011;62269;47.594;17.638;2024-02-14T03:15:30;11.25;;;9.10;;
62673;SDS011;62269;47.594;17.638;2024-02-14T03:16:29;11.40;;;9.35;;
62673;SDS011;62269;47.594;17.638;2024-02-14T03:17:27;11.57;;;9.00;;
62673;SDS011;62269;47.594;17.638;2024-02-14T03:18:25;12.88;;;9.38;;
62673;SDS011;62269;47.594;17.638;2024-02-14T03:19:23;11.55;;;9.82;;
62673;SDS011;62269;47.594;17.638;2024-02-14T03:20:20;11.12;;;9.10;;
62673;SDS011;62269;47.594;17.638;2024-02-14T03:21:18;11.40;;;9.35;;
62673;SDS011;62269;47.594;17.638;2024-02-14T03:22:16;13.95;;;10.07;;
62673;SDS011;62269;47.594;17.638;2024-02-14T03:23:18;11.23;;;9.73;;
62673;SDS011;62269;47.594;17.638;2024-02-14T03:26:33;10.60;;;9.02;;
62673;SDS011;62269;47.594;17.638;2024-02-14T03:27:31;12.93;;;9.50;;
62673;SDS011;62269;47.594;17.638;2024-02-14T03:28:29;13.13;;;9.35;;
62673;SDS011;62269;47.594;17.638;2024-02-14T03:29:27;11.70;;;9.80;;
62673;SDS011;62269;47.594;17.638;2024-02-14T03:30:24;10.88;;;9.63;;
62673;SDS011;62269;47.594;17.638;2024-02-14T03:31:22;11.95;;;9.38;;
62673;SDS011;62269;47.594;17.638;2024-02-14T03:32:19;11.15;;;10.02;;
62673;SDS011;62269;47.594;17.638;2024-02-14T03:33:17;11.55;;;10.00;;
62673;SDS011;62269;47.594;17.638;2024-02-14T03:34:14;11.20;;;9.50;;
62673;SDS011;62269;47.594;17.638;2024-02-14T03:35:12;11.68;;;9.45;;
62673;SDS011;62269;47.594;17.638;2024-02-14T03:36:10;11.63;;;9.10;;
62673;SDS011;62269;47.594;17.638;2024-02-14T03:37:07;12.05;;;9.70;;
62673;SDS011;62269;47.594;17.638;2024-02-14T03:38:05;13.85;;;10.48;;
62673;SDS011;62269;47.594;17.638;2024-02-14T03:39:05;12.82;;;9.73;;
62673;SDS011;62269;47.594;17.638;2024-02-14T03:40:04;10.85;;;9.75;;
62673;SDS011;62269;47.594;17.638;2024-02-14T03:41:01;12.60;;;9.63;;
62673;SDS011;62269;47.594;17.638;2024-02-14T03:41:59;12.80;;;10.02;;
62673;SDS011;62269;47.594;17.638;2024-02-14T03:43:57;11.10;;;9.32;;
62673;SDS011;62269;47.594;17.638;2024-02-14T03:44:58;11.45;;;10.25;;
62673;SDS011;62269;47.594;17.638;2024-02-14T03:46:57;13.57;;;10.07;;
62673;SDS011;62269;47.594;17.638;2024-02-14T04:03:57;12.65;;;11.25;;
62673;SDS011;62269;47.594;17.638;2024-02-14T04:04:54;12.45;;;11.15;;
62673;SDS011;62269;47.594;17.638;2024-02-14T04:05:52;13.13;;;11.07;;
62673;SDS011;62269;47.594;17.638;2024-02-14T04:06:50;11.88;;;10.07;;
62673;SDS011;62269;47.594;17.638;2024-02-14T04:07:47;13.45;;;10.68;;
62673;SDS011;62269;47.594;17.638;2024-02-14T04:08:49;12.20;;;10.88;;
62673;SDS011;62269;47.594;17.638;2024-02-14T04:09:46;11.00;;;9.80;;
62673;SDS011;62269;47.594;17.638;2024-02-14T04:10:44;11.65;;;10.45;;
62673;SDS011;62269;47.594;17.638;2024-02-14T04:11:43;12.23;;;10.50;;
62673;SDS011;62269;47.594;17.638;2024-02-14T04:12:41;12.45;;;10.65;;
62673;SDS011;62269;47.594;17.638;2024-02-14T04:13:40;11.45;;;10.20;;
62673;SDS011;62269;47.594;17.638;2024-02-14T04:14:39;11.35;;;10.15;;
62673;SDS011;62269;47.594;17.638;2024-02-14T04:15:36;11.88;;;10.38;;
62673;SDS011;62269;47.594;17.638;2024-02-14T04:16:34;13.52;;;10.40;;
62673;SDS011;62269;47.594;17.638;2024-02-14T04:17:33;12.25;;;10.95;;
62673;SDS011;62269;47.594;17.638;2024-02-14T04:18:30;11.77;;;10.55;;
62673;SDS011;62269;47.594;17.638;2024-02-14T04:19:28;13.38;;;11.57;;
62673;SDS011;62269;47.594;17.638;2024-02-14T04:20:26;13.90;;;10.27;;
62673;SDS011;62269;47.594;17.638;2024-02-14T04:21:24;12.93;;;10.65;;
62673;SDS011;62269;47.594;17.638;2024-02-14T04:22:22;12.18;;;10.43;;
62673;SDS011;62269;47.594;17.638;2024-02-14T04:23:20;12.10;;;10.90;;
62673;SDS011;62269;47.594;17.638;2024-02-14T04:24:19;13.50;;;11.23;;
62673;SDS011;62269;47.594;17.638;2024-02-14T04:25:16;13.23;;;10.75;;
62673;SDS011;62269;47.594;17.638;2024-02-14T04:26:19;12.13;;;10.82;;
62673;SDS011;62269;47.594;17.638;2024-02-14T04:27:17;11.32;;;10.02;;
62673;SDS011;62269;47.594;17.638;2024-02-14T04:28:14;12.27;;;10.80;;
62673;SDS011;62269;47.594;17.638;2024-02-14T04:29:13;12.55;;;10.30;;
62673;SDS011;62269;47.594;17.638;2024-02-14T04:30:13;11.55;;;10.30;;
62673;SDS011;62269;47.594;17.638;2024-02-14T04:31:11;11.80;;;10.48;;
62673;SDS011;62269;47.594;17.638;2024-02-14T04:32:08;13.82;;;10.68;;
62673;SDS011;62269;47.594;17.638;2024-02-14T04:33:05;11.35;;;10.13;;
62673;SDS011;62269;47.594;17.638;2024-02-14T04:34:10;14.27;;;10.80;;
62673;SDS011;62269;47.594;17.638;2024-02-14T04:35:08;11.75;;;9.98;;
62673;SDS011;62269;47.594;17.638;2024-02-14T04:36:06;11.98;;;10.65;;
62673;SDS011;62269;47.594;17.638;2024-02-14T04:37:04;13.43;;;11.30;;
62673;SDS011;62269;47.594;17.638;2024-02-14T04:38:06;11.35;;;10.15;;
62673;SDS011;62269;47.594;17.638;2024-02-14T04:39:05;11.18;;;9.98;;
62673;SDS011;62269;47.594;17.638;2024-02-14T04:40:04;11.80;;;10.52;;
62673;SDS011;62269;47.594;17.638;2024-02-14T04:41:02;11.35;;;10.02;;
62673;SDS011;62269;47.594;17.638;2024-02-14T04:42:00;10.98;;;9.88;;
62673;SDS011;62269;47.594;17.638;2024-02-14T04:42:58;11.77;;;10.55;;
62673;SDS011;62269;47.594;17.638;2024-02-14T04:43:56;11.80;;;10.35;;
62673;SDS011;62269;47.594;17.638;2024-02-14T04:44:53;11.93;;;10.55;;
62673;SDS011;62269;47.594;17.638;2024-02-14T04:45:51;12.55;;;11.25;;
62673;SDS011;62269;47.594;17.638;2024-02-14T04:46:48;13.27;;;10.32;;
62673;SDS011;62269;47.594;17.638;2024-02-14T04:47:46;13.10;;;11.65;;
62673;SDS011;62269;47.594;17.638;2024-02-14T04:48:43;12.13;;;10.75;;
62673;SDS011;62269;47.594;17.638;2024-02-14T04:49:41;11.90;;;10.60;;
62673;SDS011;62269;47.594;17.638;2024-02-14T04:50:40;13.00;;;11.35;;
62673;SDS011;62269;47.594;17.638;2024-02-14T04:51:38;11.68;;;10.48;;
62673;SDS011;62269;47.594;17.638;2024-02-14T04:52:35;12.85;;;10.88;;
62673;SDS011;62269;47.594;17.638;2024-02-14T04:53:33;12.23;;;10.88;;
62673;SDS011;62269;47.594;17.638;2024-02-14T04:54:31;12.82;;;10.98;;
62673;SDS011;62269;47.594;17.638;2024-02-14T04:55:28;13.35;;;11.10;;
62673;SDS011;62269;47.594;17.638;2024-02-14T04:56:26;12.43;;;10.70;;
62673;SDS011;62269;47.594;17.638;2024-02-14T04:57:24;10.88;;;9.77;;
62673;SDS011;62269;47.594;17.638;2024-02-14T04:58:22;11.63;;;10.35;;
62673;SDS011;62269;47.594;17.638;2024-02-14T04:59:20;14.65;;;10.70;;
62673;SDS011;62269;47.594;17.638;2024-02-14T05:00:18;12.57;;;10.15;;
62673;SDS011;62269;47.594;17.638;2024-02-14T05:01:16;12.05;;;10.80;;
62673;SDS011;62269;47.594;17.638;2024-02-14T05:02:15;13.68;;;11.48;;
62673;SDS011;62269;47.594;17.638;2024-02-14T05:03:12;12.48;;;11.18;;
62673;SDS011;62269;47.594;17.638;2024-02-14T05:04:10;12.75;;;11.45;;
62673;SDS011;62269;47.594;17.638;2024-02-14T05:05:08;13.02;;;10.38;;
62673;SDS011;62269;47.594;17.638;2024-02-14T05:06:06;11.27;;;10.07;;
62673;SDS011;62269;47.594;17.638;2024-02-14T05:07:04;11.70;;;10.50;;
62673;SDS011;62269;47.594;17.638;2024-02-14T05:08:02;12.50;;;10.45;;
62673;SDS011;62269;47.594;17.638;2024-02-14T05:08:59;11.70;;;10.50;;
62673;SDS011;62269;47.594;17.638;2024-02-14T05:09:57;12.05;;;10.65;;
62673;SDS011;62269;47.594;17.638;2024-02-14T05:10:54;12.93;;;10.82;;
62673;SDS011;62269;47.594;17.638;2024-02-14T05:11:52;13.75;;;10.57;;
62673;SDS011;62269;47.594;17.638;2024-02-14T05:12:49;12.40;;;10.02;;
62673;SDS011;62269;47.594;17.638;2024-02-14T05:13:47;11.35;;;10.15;;
62673;SDS011;62269;47.594;17.638;2024-02-14T05:14:45;13.95;;;10.95;;
62673;SDS011;62269;47.594;17.638;2024-02-14T05:15:42;12.82;;;9.98;;
62673;SDS011;62269;47.594;17.638;2024-02-14T05:16:40;12.27;;;9.85;;
62673;SDS011;62269;47.594;17.638;2024-02-14T05:17:38;14.13;;;10.48;;
62673;SDS011;62269;47.594;17.638;2024-02-14T05:18:35;12.85;;;9.82;;
62673;SDS011;62269;47.594;17.638;2024-02-14T05:19:34;10.90;;;9.68;;
62673;SDS011;62269;47.594;17.638;2024-02-14T05:20:32;11.77;;;9.93;;
62673;SDS011;62269;47.594;17.638;2024-02-14T05:21:29;11.23;;;10.02;;
62673;SDS011;62269;47.594;17.638;2024-02-14T05:22:27;10.95;;;9.45;;
62673;SDS011;62269;47.594;17.638;2024-02-14T05:23:24;13.45;;;9.45;;
62673;SDS011;62269;47.594;17.638;2024-02-14T05:24:21;10.25;;;8.90;;
62673;SDS011;62269;47.594;17.638;2024-02-14T05:25:19;10.95;;;9.52;;
62673;SDS011;62269;47.594;17.638;2024-02-14T05:26:17;13.70;;;9.65;;
62673;SDS011;62269;47.594;17.638;2024-02-14T05:27:14;12.73;;;10.35;;
62673;SDS011;62269;47.594;17.638;2024-02-14T05:28:12;11.55;;;10.40;;
62673;SDS011;62269;47.594;17.638;2024-02-14T05:29:10;12.32;;;10.18;;
62673;SDS011;62269;47.594;17.638;2024-02-14T05:30:08;13.57;;;10.63;;
62673;SDS011;62269;47.594;17.638;2024-02-14T05:31:06;10.75;;;9.63;;
62673;SDS011;62269;47.594;17.638;2024-02-14T05:32:04;11.12;;;9.93;;
62673;SDS011;62269;47.594;17.638;2024-02-14T05:33:02;12.10;;;10.23;;
62673;SDS011;62269;47.594;17.638;2024-02-14T05:34:00;15.20;;;10.32;;
62673;SDS011;62269;47.594;17.638;2024-02-14T05:34:57;11.18;;;9.60;;
62673;SDS011;62269;47.594;17.638;2024-02-14T05:35:55;11.43;;;10.05;;
62673;SDS011;62269;47.594;17.638;2024-02-14T05:36:53;12.30;;;9.93;;
62673;SDS011;62269;47.594;17.638;2024-02-14T05:37:51;11.90;;;9.82;;
62673;SDS011;62269;47.594;17.638;2024-02-14T05:38:48;12.57;;;9.85;;
62673;SDS011;62269;47.594;17.638;2024-02-14T05:39:46;11.80;;;10.35;;
62673;SDS011;62269;47.594;17.638;2024-02-14T05:40:43;12.80;;;9.85;;
62673;SDS011;62269;47.594;17.638;2024-02-14T05:41:41;12.52;;;9.52;;
62673;SDS011;62269;47.594;17.638;2024-02-14T05:42:38;12.90;;;9.85;;
62673;SDS011;62269;47.594;17.638;2024-02-14T05:43:36;10.77;;;9.68;;
62673;SDS011;62269;47.594;17.638;2024-02-14T05:44:35;15.25;;;10.55;;
62673;SDS011;62269;47.594;17.638;2024-02-14T05:45:33;12.27;;;10.13;;
62673;SDS011;62269;47.594;17.638;2024-02-14T05:46:30;11.73;;;9.90;;
62673;SDS011;62269;47.594;17.638;2024-02-14T05:47:28;12.90;;;10.00;;
62673;SDS011;62269;47.594;17.638;2024-02-14T05:48:25;11.45;;;10.25;;
62673;SDS011;62269;47.594;17.638;2024-02-14T05:49:23;11.38;;;9.45;;
62673;SDS011;62269;47.594;17.638;2024-02-14T05:50:21;12.45;;;9.30;;
62673;SDS011;62269;47.594;17.638;2024-02-14T05:51:19;12.35;;;9.88;;
62673;SDS011;62269;47.594;17.638;2024-02-14T05:52:16;12.45;;;9.85;;
62673;SDS011;62269;47.594;17.638;2024-02-14T05:53:15;13.15;;;9.77;;
62673;SDS011;62269;47.594;17.638;2024-02-14T05:54:12;12.75;;;9.63;;
62673;SDS011;62269;47.594;17.638;2024-02-14T05:55:09;11.32;;;9.68;;
62673;SDS011;62269;47.594;17.638;2024-02-14T05:56:07;11.02;;;9.30;;
62673;SDS011;62269;47.594;17.638;2024-02-14T05:57:04;11.82;;;9.57;;
62673;SDS011;62269;47.594;17.638;2024-02-14T05:58:02;13.93;;;10.60;;
62673;SDS011;62269;47.594;17.638;2024-02-14T05:59:00;11.75;;;9.48;;
62673;SDS011;62269;47.594;17.638;2024-02-14T05:59:57;11.73;;;9.60;;
62673;SDS011;62269;47.594;17.638;2024-02-14T06:00:54;13.50;;;10.27;;
62673;SDS011;62269;47.594;17.638;2024-02-14T06:01:52;11.32;;;10.00;;
62673;SDS011;62269;47.594;17.638;2024-02-14T06:02:49;14.05;;;10.85;;
62673;SDS011;62269;47.594;17.638;2024-02-14T06:03:46;11.85;;;9.30;;
62673;SDS011;62269;47.594;17.638;2024-02-14T06:04:44;11.82;;;9.77;;
62673;SDS011;62269;47.594;17.638;2024-02-14T06:05:41;12.23;;;10.02;;
62673;SDS011;62269;47.594;17.638;2024-02-14T06:06:38;13.30;;;11.45;;
62673;SDS011;62269;47.594;17.638;2024-02-14T06:07:35;10.52;;;9.23;;
62673;SDS011;62269;47.594;17.638;2024-02-14T06:09:33;13.60;;;9.23;;
62673;SDS011;62269;47.594;17.638;2024-02-14T06:10:30;12.68;;;10.20;;
62673;SDS011;62269;47.594;17.638;2024-02-14T06:11:27;12.07;;;9.60;;
62673;SDS011;62269;47.594;17.638;2024-02-14T06:12:24;12.37;;;9.63;;
62673;SDS011;62269;47.594;17.638;2024-02-14T06:13:21;11.70;;;9.52;;